New Chitose Airport


Codes: RJCC/CTS
Name: New Chitose Airport
City: Chitose / Tomakomai
Country: Japan
Elevation: 82 ft.
Website:
Wikipedia:

Photos at New Chitose Airport


   Photos courtesy of SpottingLog. You can add your own sightings and photos by signing up for a free trial today.



JA823P, 26-Jul-2022
© Tomo-Papa

JA73NG, 26-Jul-2022
© Tomo-Papa

JA703J, 26-Jul-2022
© Tomo-Papa

JA14VA, 26-Jul-2022
© Tomo-Papa

JA329J, 26-Jul-2022
© Tomo-Papa

JA07XJ, 26-Jul-2022
© Tomo-Papa

JA74AN, 26-Jul-2022
© Tomo-Papa

JA81AN, 23-May-2019
© Tomo-Papa

B-6863, 23-May-2019
© Tomo-Papa

JA225J, 23-May-2019
© Tomo-Papa

B-8653, 23-May-2019
© Tomo-Papa

HL8058, 23-May-2019
© Tomo-Papa


Weather at New Chitose Airport


Time (UTC)DescriptionTempratureWindCloud coverageVisibilityPressureHumidity
16-Jun-2024 09:00Moderate Rain19°C11 mph, S75%20m1000hPa94%
16-Jun-2024 12:00Moderate Rain18°C9 mph, S83%34m1001hPa96%
16-Jun-2024 15:00Overcast Clouds17°C9 mph, N92%0m1001hPa98%
16-Jun-2024 18:00Overcast Clouds15°C9 mph, S95%8765m1001hPa97%
16-Jun-2024 21:00Scattered Clouds16°C9 mph, S25%10000m1003hPa92%
17-Jun-2024 00:00Scattered Clouds20°C11 mph, S27%10000m1003hPa68%
17-Jun-2024 03:00Light Rain23°C13 mph, SW39%10000m1002hPa58%
17-Jun-2024 06:00Scattered Clouds24°C11 mph, SW46%10000m1002hPa56%
17-Jun-2024 09:00Few Clouds21°C9 mph, SW19%10000m1004hPa67%
17-Jun-2024 12:00Few Clouds16°C7 mph, S22%10000m1004hPa81%
17-Jun-2024 15:00Broken Clouds15°C7 mph, SE54%10000m1004hPa96%
17-Jun-2024 18:00Broken Clouds14°C11 mph, SE67%10000m1004hPa98%
17-Jun-2024 21:00Overcast Clouds17°C13 mph, SE97%10000m1004hPa91%
18-Jun-2024 00:00Overcast Clouds21°C13 mph, S90%10000m1003hPa77%
18-Jun-2024 03:00Broken Clouds23°C13 mph, S79%10000m1003hPa66%
18-Jun-2024 06:00Overcast Clouds23°C9 mph, S90%10000m1002hPa69%
18-Jun-2024 09:00Light Rain18°C9 mph, SE100%10000m1003hPa88%
18-Jun-2024 12:00Broken Clouds15°C4 mph, N84%10000m1004hPa97%
18-Jun-2024 15:00Overcast Clouds16°C4 mph, N100%10000m1004hPa95%
18-Jun-2024 18:00Overcast Clouds15°C9 mph, N99%10000m1005hPa93%
18-Jun-2024 21:00Scattered Clouds16°C11 mph, N36%10000m1007hPa89%
19-Jun-2024 00:00Scattered Clouds21°C13 mph, N41%10000m1008hPa64%
19-Jun-2024 03:00Clear Sky23°C13 mph, N7%10000m1007hPa52%
19-Jun-2024 06:00Scattered Clouds22°C11 mph, N42%10000m1008hPa54%
19-Jun-2024 09:00Scattered Clouds18°C9 mph, N31%10000m1009hPa73%
19-Jun-2024 12:00Broken Clouds14°C7 mph, N63%10000m1010hPa82%
19-Jun-2024 15:00Broken Clouds13°C4 mph, N73%10000m1011hPa83%
19-Jun-2024 18:00Broken Clouds12°C0 mph, N66%10000m1011hPa82%
19-Jun-2024 21:00Broken Clouds15°C4 mph, SE71%10000m1011hPa77%
20-Jun-2024 00:00Overcast Clouds16°C7 mph, S86%10000m1011hPa79%
20-Jun-2024 03:00Broken Clouds21°C13 mph, S71%10000m1010hPa65%
20-Jun-2024 06:00Broken Clouds20°C13 mph, S81%10000m1009hPa71%
20-Jun-2024 09:00Overcast Clouds17°C9 mph, S100%10000m1009hPa82%
20-Jun-2024 12:00Overcast Clouds14°C7 mph, S100%10000m1009hPa90%
20-Jun-2024 15:00Overcast Clouds15°C7 mph, S98%10000m1008hPa93%
20-Jun-2024 18:00Light Rain15°C4 mph, S93%10000m1007hPa95%
20-Jun-2024 21:00Light Rain17°C7 mph, SE100%10000m1007hPa93%
21-Jun-2024 00:00Overcast Clouds21°C4 mph, SE100%10000m1007hPa78%
21-Jun-2024 03:00Overcast Clouds24°C7 mph, S100%10000m1006hPa67%
21-Jun-2024 06:00Light Rain23°C4 mph, N100%10000m1006hPa73%